Gerton, NC

09:58 EDT, 02. Sentaber, 2014 (GMT -0400)
Little Bearwallow MOUNTAIN | Change Station
CLOSE
Current Station
Personal Weather Stations
Location: Hendersonville, NC
Böyiklik: 2820 ft
Nearby Weather Stations

Elev 2820 ft 35.44 °N, 82.35 °W | Updated 2 seconds ago

Ayaz
Ayaz
77.0 °F
Feels Like 79 °F
N
0.0
Cel Üzgärüçän Cel from
Gusts 0.0 mil/seğ

Bogön
High -- | Low -- °F
--% Chance of Precip.
Kiçä
High -- | Low -- °F
Precip. -- in
7:02 AM 7:54 PM
Berençe çirek, 51% visible
Basım 30.12 in
Köriniwçenlik 10.0 mil
Bolıtlı Ayaz
İssilik 79 °F
Çıq noqtası 70 °F
Dımlıq 79%
Rainfall 0.03 in
Qar bieklege Not available.
UV 2 out of 12
Pollen 9.10 out of 12
Ozone Good
PM2.5 Good
Flu Activity Not available.
METAR KAVL 021254Z 33005KT 10SM CLR 21/19 A3019 RMK AO2 SLP198 T02110194

More Conditions Fewer Conditions

Basım 30.12 in
Köriniwçenlik 10.0 mil
Bolıtlı Ayaz
İssilik 79 °F
Çıq noqtası 70 °F
Dımlıq 79%
Rainfall 0.03 in
Qar bieklege Not available.
UV 2 out of 12
Pollen 9.10 out of 12
Ozone Good
PM2.5 Good
Flu Activity Not available.
METAR KAVL 021254Z 33005KT 10SM CLR 21/19 A3019 RMK AO2 SLP198 T02110194

More Conditions Fewer Conditions

10-Day Weather Forecast

Almanac

Kükbelem

Sep. 02, 2014 Rise Set
Anıñ çağı 07:02 EDT 19:54 EDT
Tormışlı qaranğı 06:36 EDT 20:20 EDT
Diñgezdä qarañğı 06:05 EDT 20:51 EDT
Küktä qarañğı 05:33 EDT 21:23 EDT
Ay 14:30 EDT 00:10 EDT
Kürenmäle yaqtı ozınlığı 13h 44m
Kön ozınlığı
12h 52m
Tomorrow will be 2m 9s shorter.
Berençe çirek, 51% of the Moon is Illuminated
Bogön
Berençe çirek
Sep 8
Tulı
Sep 15
Soñğı çirek
Sep 24
New
Oct 1
Berençe çirek

Today's Extremes

State Highs State Lows

Community

WunderPhotos

Upload Photos

1,749,656 photos uploaded!

Nearby

Hawa Sífatı

  Hawa Sífatı HS İndekse Pıçratqıç
Kiçä Moderate
PM2.5
Kiçä Good
OZONE
Eligi Good
PM2.5
Eligi Good
OZONE
Seşembe Good
PM2.5
Seşembe Good
OZONE
Çerşembe Good
PM2.5
Çerşembe Good
OZONE
Pencişembe Good
PM2.5
Pencişembe Good
OZONE

Qar terenligi

Station Depth Böyiklik
No new snow has been reported.

Earthquake Activity

Qala Distance Mag. Time & Date
No recent earthquake activity has been reported nearby.
Minimum magnitude displayed is 2.5.

Coastal Water Temperatures

Orın Cılılıq
No Stations Reporting

Nearby Weather Stations